sensor_id;sensor_type;location;lat;lon;timestamp;pressure;altitude;pressure_sealevel;temperature;humidity
46379;BME280;32084;42.254;22.744;2023-11-21T00:01:54;95040.25;;;3.01;91.03
46379;BME280;32084;42.254;22.744;2023-11-21T00:04:20;95039.88;;;3.05;90.25
46379;BME280;32084;42.254;22.744;2023-11-21T00:06:47;95037.13;;;3.07;90.05
46379;BME280;32084;42.254;22.744;2023-11-21T00:09:13;95037.00;;;3.08;90.11
46379;BME280;32084;42.254;22.744;2023-11-21T00:11:41;95036.41;;;3.05;89.92
46379;BME280;32084;42.254;22.744;2023-11-21T00:14:07;95036.53;;;3.15;90.39
46379;BME280;32084;42.254;22.744;2023-11-21T00:16:34;95044.31;;;3.05;90.27
46379;BME280;32084;42.254;22.744;2023-11-21T00:19:00;95045.66;;;3.10;90.90
46379;BME280;32084;42.254;22.744;2023-11-21T00:21:26;95047.34;;;3.11;90.32
46379;BME280;32084;42.254;22.744;2023-11-21T00:23:52;95056.47;;;3.07;90.17
46379;BME280;32084;42.254;22.744;2023-11-21T00:26:18;95053.81;;;3.07;90.36
46379;BME280;32084;42.254;22.744;2023-11-21T00:28:44;95056.16;;;2.88;90.36
46379;BME280;32084;42.254;22.744;2023-11-21T00:31:10;95063.22;;;2.76;89.97
46379;BME280;32084;42.254;22.744;2023-11-21T00:33:36;95070.44;;;2.74;90.27
46379;BME280;32084;42.254;22.744;2023-11-21T00:36:02;95066.47;;;2.80;89.64
46379;BME280;32084;42.254;22.744;2023-11-21T00:38:28;95069.16;;;2.56;91.58
46379;BME280;32084;42.254;22.744;2023-11-21T00:40:53;95069.66;;;2.61;92.28
46379;BME280;32084;42.254;22.744;2023-11-21T00:43:22;95064.16;;;2.75;91.34
46379;BME280;32084;42.254;22.744;2023-11-21T00:45:48;95061.72;;;2.85;91.39
46379;BME280;32084;42.254;22.744;2023-11-21T00:48:17;95062.63;;;2.72;91.55
46379;BME280;32084;42.254;22.744;2023-11-21T00:50:46;95059.41;;;2.80;91.26
46379;BME280;32084;42.254;22.744;2023-11-21T00:53:12;95068.28;;;2.79;91.55
46379;BME280;32084;42.254;22.744;2023-11-21T00:55:38;95060.72;;;2.86;91.40
46379;BME280;32084;42.254;22.744;2023-11-21T00:58:07;95061.16;;;2.68;91.13
46379;BME280;32084;42.254;22.744;2023-11-21T01:00:33;95064.28;;;2.62;91.38
46379;BME280;32084;42.254;22.744;2023-11-21T01:02:59;95054.94;;;2.69;90.96
46379;BME280;32084;42.254;22.744;2023-11-21T01:05:25;95059.25;;;2.70;91.41
46379;BME280;32084;42.254;22.744;2023-11-21T01:07:52;95061.19;;;2.80;91.86
46379;BME280;32084;42.254;22.744;2023-11-21T01:10:18;95049.56;;;2.82;91.13
46379;BME280;32084;42.254;22.744;2023-11-21T01:12:44;95058.34;;;2.83;90.58
46379;BME280;32084;42.254;22.744;2023-11-21T01:15:10;95047.84;;;2.70;90.99
46379;BME280;32084;42.254;22.744;2023-11-21T01:17:37;95043.78;;;2.66;91.24
46379;BME280;32084;42.254;22.744;2023-11-21T01:20:04;95043.78;;;2.66;91.36
46379;BME280;32084;42.254;22.744;2023-11-21T01:22:36;95051.22;;;2.72;91.81
46379;BME280;32084;42.254;22.744;2023-11-21T01:25:02;95052.88;;;2.73;90.69
46379;BME280;32084;42.254;22.744;2023-11-21T01:27:30;95049.16;;;2.64;90.87
46379;BME280;32084;42.254;22.744;2023-11-21T01:29:56;95048.66;;;2.59;91.51
46379;BME280;32084;42.254;22.744;2023-11-21T01:32:22;95050.00;;;2.65;91.81
46379;BME280;32084;42.254;22.744;2023-11-21T01:34:48;95051.56;;;2.67;92.20
46379;BME280;32084;42.254;22.744;2023-11-21T01:37:14;95041.63;;;2.82;91.47
46379;BME280;32084;42.254;22.744;2023-11-21T01:39:40;95043.34;;;2.83;91.27
46379;BME280;32084;42.254;22.744;2023-11-21T01:42:06;95043.34;;;2.83;90.66
46379;BME280;32084;42.254;22.744;2023-11-21T01:44:33;95049.41;;;2.72;90.54
46379;BME280;32084;42.254;22.744;2023-11-21T01:46:59;95046.66;;;2.74;90.57
46379;BME280;32084;42.254;22.744;2023-11-21T01:49:25;95046.78;;;2.72;90.62
46379;BME280;32084;42.254;22.744;2023-11-21T01:51:51;95039.91;;;2.59;89.87
46379;BME280;32084;42.254;22.744;2023-11-21T01:54:17;95029.84;;;2.28;91.59
46379;BME280;32084;42.254;22.744;2023-11-21T01:56:47;95025.66;;;2.37;92.15
46379;BME280;32084;42.254;22.744;2023-11-21T01:59:20;95021.91;;;2.52;91.91
46379;BME280;32084;42.254;22.744;2023-11-21T02:01:47;95026.25;;;2.65;91.70
46379;BME280;32084;42.254;22.744;2023-11-21T02:04:13;95022.28;;;2.70;91.92
46379;BME280;32084;42.254;22.744;2023-11-21T02:06:39;95019.16;;;2.65;92.14
46379;BME280;32084;42.254;22.744;2023-11-21T02:09:05;95011.59;;;2.61;92.04
46379;BME280;32084;42.254;22.744;2023-11-21T02:11:31;95011.69;;;2.59;91.76
46379;BME280;32084;42.254;22.744;2023-11-21T02:14:00;95004.25;;;2.53;92.31
46379;BME280;32084;42.254;22.744;2023-11-21T02:16:26;95005.84;;;2.67;93.36
46379;BME280;32084;42.254;22.744;2023-11-21T02:18:53;95009.94;;;2.82;92.93
46379;BME280;32084;42.254;22.744;2023-11-21T02:21:19;95011.38;;;2.86;92.84
46379;BME280;32084;42.254;22.744;2023-11-21T02:23:45;95012.88;;;2.90;92.54
46379;BME280;32084;42.254;22.744;2023-11-21T02:26:12;95014.75;;;3.00;92.77
46379;BME280;32084;42.254;22.744;2023-11-21T02:28:39;95023.88;;;2.96;92.35
46379;BME280;32084;42.254;22.744;2023-11-21T02:31:06;95013.09;;;2.87;91.68
46379;BME280;32084;42.254;22.744;2023-11-21T02:33:33;95017.41;;;2.88;92.23
46379;BME280;32084;42.254;22.744;2023-11-21T02:36:02;95018.63;;;3.07;91.57
46379;BME280;32084;42.254;22.744;2023-11-21T02:38:29;95025.25;;;3.12;92.07
46379;BME280;32084;42.254;22.744;2023-11-21T02:40:56;95018.16;;;2.90;91.42
46379;BME280;32084;42.254;22.744;2023-11-21T02:43:22;95013.13;;;2.52;93.57
46379;BME280;32084;42.254;22.744;2023-11-21T02:45:49;95007.84;;;2.52;94.37
46379;BME280;32084;42.254;22.744;2023-11-21T02:48:15;95005.69;;;2.57;95.07
46379;BME280;32084;42.254;22.744;2023-11-21T02:50:41;95002.75;;;2.84;94.10
46379;BME280;32084;42.254;22.744;2023-11-21T02:53:09;95007.59;;;3.02;93.09
46379;BME280;32084;42.254;22.744;2023-11-21T02:55:36;95004.47;;;3.08;92.97
46379;BME280;32084;42.254;22.744;2023-11-21T02:58:02;95000.59;;;2.89;91.78
46379;BME280;32084;42.254;22.744;2023-11-21T03:00:29;95013.03;;;2.65;91.21
46379;BME280;32084;42.254;22.744;2023-11-21T03:02:55;95013.00;;;2.53;92.80
46379;BME280;32084;42.254;22.744;2023-11-21T03:05:21;95008.88;;;2.73;93.08
46379;BME280;32084;42.254;22.744;2023-11-21T03:07:47;95005.88;;;2.89;93.27
46379;BME280;32084;42.254;22.744;2023-11-21T03:10:13;95010.47;;;2.99;92.71
46379;BME280;32084;42.254;22.744;2023-11-21T03:12:39;95016.47;;;3.01;92.69
46379;BME280;32084;42.254;22.744;2023-11-21T03:15:06;95014.31;;;2.95;91.90
46379;BME280;32084;42.254;22.744;2023-11-21T03:17:32;95016.16;;;2.59;92.77
46379;BME280;32084;42.254;22.744;2023-11-21T03:20:00;95015.69;;;2.65;92.81
46379;BME280;32084;42.254;22.744;2023-11-21T03:22:26;95009.09;;;2.70;92.86
46379;BME280;32084;42.254;22.744;2023-11-21T03:24:52;95009.44;;;2.66;92.61
46379;BME280;32084;42.254;22.744;2023-11-21T03:27:18;95000.22;;;2.71;92.55
46379;BME280;32084;42.254;22.744;2023-11-21T03:29:44;94998.78;;;2.79;92.21
46379;BME280;32084;42.254;22.744;2023-11-21T03:32:12;95006.50;;;2.93;92.33
46379;BME280;32084;42.254;22.744;2023-11-21T03:34:52;95017.19;;;3.03;91.98
46379;BME280;32084;42.254;22.744;2023-11-21T03:37:18;95006.00;;;2.99;92.10
46379;BME280;32084;42.254;22.744;2023-11-21T03:39:46;95003.31;;;2.65;91.66
46379;BME280;32084;42.254;22.744;2023-11-21T03:42:12;95001.19;;;2.35;93.37
46379;BME280;32084;42.254;22.744;2023-11-21T03:44:38;95010.44;;;2.41;94.21
46379;BME280;32084;42.254;22.744;2023-11-21T03:47:04;95008.22;;;2.59;93.30
46379;BME280;32084;42.254;22.744;2023-11-21T03:49:31;95014.00;;;2.75;92.90
46379;BME280;32084;42.254;22.744;2023-11-21T03:51:57;95014.03;;;2.86;92.31
46379;BME280;32084;42.254;22.744;2023-11-21T03:54:23;95014.16;;;2.85;92.20
46379;BME280;32084;42.254;22.744;2023-11-21T03:56:48;95010.06;;;2.69;91.11
46379;BME280;32084;42.254;22.744;2023-11-21T03:59:14;95011.69;;;2.59;91.96
46379;BME280;32084;42.254;22.744;2023-11-21T04:01:41;95007.00;;;2.51;92.58
46379;BME280;32084;42.254;22.744;2023-11-21T04:04:07;94996.81;;;2.47;92.63
46379;BME280;32084;42.254;22.744;2023-11-21T04:06:33;94995.22;;;2.44;93.04
46379;BME280;32084;42.254;22.744;2023-11-21T04:08:59;94993.59;;;2.54;92.54
46379;BME280;32084;42.254;22.744;2023-11-21T04:11:24;94987.34;;;2.56;92.59
46379;BME280;32084;42.254;22.744;2023-11-21T04:13:50;94992.00;;;2.52;92.20
46379;BME280;32084;42.254;22.744;2023-11-21T04:16:16;95002.19;;;2.45;92.65
46379;BME280;32084;42.254;22.744;2023-11-21T04:18:43;94995.72;;;2.49;92.79
46379;BME280;32084;42.254;22.744;2023-11-21T04:21:09;94995.78;;;2.37;93.14
46379;BME280;32084;42.254;22.744;2023-11-21T04:23:35;94999.44;;;2.47;94.58
46379;BME280;32084;42.254;22.744;2023-11-21T04:26:01;94996.44;;;2.51;95.74
46379;BME280;32084;42.254;22.744;2023-11-21T04:28:27;95006.53;;;2.58;94.78
46379;BME280;32084;42.254;22.744;2023-11-21T04:30:53;95004.19;;;2.66;93.68
46379;BME280;32084;42.254;22.744;2023-11-21T04:33:19;95000.91;;;2.62;92.82
46379;BME280;32084;42.254;22.744;2023-11-21T04:35:47;95002.44;;;2.53;92.45
46379;BME280;32084;42.254;22.744;2023-11-21T04:38:13;95003.66;;;2.61;92.06
46379;BME280;32084;42.254;22.744;2023-11-21T04:40:39;94999.69;;;2.55;92.36
46379;BME280;32084;42.254;22.744;2023-11-21T04:43:05;94998.63;;;2.58;92.45
46379;BME280;32084;42.254;22.744;2023-11-21T04:45:31;95003.06;;;2.57;92.40
46379;BME280;32084;42.254;22.744;2023-11-21T04:47:57;94998.41;;;2.61;93.07
46379;BME280;32084;42.254;22.744;2023-11-21T04:50:23;95006.31;;;2.61;91.60
46379;BME280;32084;42.254;22.744;2023-11-21T04:52:51;95006.25;;;2.38;92.65
46379;BME280;32084;42.254;22.744;2023-11-21T04:55:17;94999.41;;;2.36;93.33
46379;BME280;32084;42.254;22.744;2023-11-21T04:57:43;95002.31;;;2.44;93.74
46379;BME280;32084;42.254;22.744;2023-11-21T05:00:09;94994.91;;;2.60;93.33
46379;BME280;32084;42.254;22.744;2023-11-21T05:02:35;95004.91;;;2.68;93.38
46379;BME280;32084;42.254;22.744;2023-11-21T05:05:02;94993.03;;;2.73;92.90
46379;BME280;32084;42.254;22.744;2023-11-21T05:07:28;94991.22;;;2.74;93.12
46379;BME280;32084;42.254;22.744;2023-11-21T05:09:54;95002.72;;;2.73;92.80
46379;BME280;32084;42.254;22.744;2023-11-21T05:12:24;94992.63;;;2.56;92.80
46379;BME280;32084;42.254;22.744;2023-11-21T05:14:50;94994.91;;;2.60;93.05
46379;BME280;32084;42.254;22.744;2023-11-21T05:17:16;94997.81;;;2.68;92.68
46379;BME280;32084;42.254;22.744;2023-11-21T05:19:42;95000.09;;;2.73;92.51
46379;BME280;32084;42.254;22.744;2023-11-21T05:22:11;95005.00;;;2.66;93.26
46379;BME280;32084;42.254;22.744;2023-11-21T05:24:38;95000.09;;;2.73;93.61
46379;BME280;32084;42.254;22.744;2023-11-21T05:27:05;94994.22;;;2.81;92.94
46379;BME280;32084;42.254;22.744;2023-11-21T05:29:31;94998.06;;;2.88;92.34
46379;BME280;32084;42.254;22.744;2023-11-21T05:31:57;95001.22;;;2.93;92.27
46379;BME280;32084;42.254;22.744;2023-11-21T05:34:23;95005.25;;;2.74;92.74
46379;BME280;32084;42.254;22.744;2023-11-21T05:36:50;95010.66;;;2.73;93.35
46379;BME280;32084;42.254;22.744;2023-11-21T05:39:16;95012.69;;;2.81;92.62
46379;BME280;32084;42.254;22.744;2023-11-21T05:41:43;94999.50;;;2.92;92.42
46379;BME280;32084;42.254;22.744;2023-11-21T05:44:09;95002.16;;;3.03;92.06
46379;BME280;32084;42.254;22.744;2023-11-21T05:46:35;95006.63;;;3.03;92.32
46379;BME280;32084;42.254;22.744;2023-11-21T05:49:01;95019.84;;;3.14;92.23
46379;BME280;32084;42.254;22.744;2023-11-21T05:51:27;95011.81;;;3.16;91.74
46379;BME280;32084;42.254;22.744;2023-11-21T05:53:53;95009.72;;;2.85;92.63
46379;BME280;32084;42.254;22.744;2023-11-21T05:56:19;95010.19;;;2.79;93.91
46379;BME280;32084;42.254;22.744;2023-11-21T05:58:45;95020.19;;;2.98;94.15
46379;BME280;32084;42.254;22.744;2023-11-21T06:01:11;95019.72;;;3.16;94.01
46379;BME280;32084;42.254;22.744;2023-11-21T06:03:38;95010.81;;;3.28;93.59
46379;BME280;32084;42.254;22.744;2023-11-21T06:06:04;95016.38;;;3.47;93.32
46379;BME280;32084;42.254;22.744;2023-11-21T06:08:30;95017.44;;;3.56;93.34
46379;BME280;32084;42.254;22.744;2023-11-21T06:10:56;95016.69;;;3.65;93.57
46379;BME280;32084;42.254;22.744;2023-11-21T06:13:22;95015.25;;;3.72;93.36
46379;BME280;32084;42.254;22.744;2023-11-21T06:15:50;95018.50;;;3.76;92.53
46379;BME280;32084;42.254;22.744;2023-11-21T06:18:16;95010.88;;;3.83;92.76
46379;BME280;32084;42.254;22.744;2023-11-21T06:20:45;95011.84;;;3.93;92.48
46379;BME280;32084;42.254;22.744;2023-11-21T06:23:11;95025.28;;;4.01;92.17
46379;BME280;32084;42.254;22.744;2023-11-21T06:25:37;95030.34;;;4.04;92.21
46379;BME280;32084;42.254;22.744;2023-11-21T06:28:03;95022.84;;;4.09;92.44
46379;BME280;32084;42.254;22.744;2023-11-21T06:30:29;95028.44;;;3.95;91.77
46379;BME280;32084;42.254;22.744;2023-11-21T06:32:55;95023.66;;;3.78;92.93
46379;BME280;32084;42.254;22.744;2023-11-21T06:35:21;95017.28;;;3.80;92.84
46379;BME280;32084;42.254;22.744;2023-11-21T06:37:48;95026.00;;;4.03;92.17
46379;BME280;32084;42.254;22.744;2023-11-21T06:40:14;95029.25;;;4.07;91.21
46379;BME280;32084;42.254;22.744;2023-11-21T06:42:44;95027.78;;;4.14;90.70
46379;BME280;32084;42.254;22.744;2023-11-21T06:45:10;95017.00;;;4.38;89.43
46379;BME280;32084;42.254;22.744;2023-11-21T06:47:37;95026.56;;;4.50;87.68
46379;BME280;32084;42.254;22.744;2023-11-21T06:50:03;95028.28;;;4.73;87.17
46379;BME280;32084;42.254;22.744;2023-11-21T06:52:30;95028.88;;;4.76;86.54
46379;BME280;32084;42.254;22.744;2023-11-21T06:54:55;95028.63;;;5.10;84.81
46379;BME280;32084;42.254;22.744;2023-11-21T06:57:24;95026.44;;;5.46;83.12
46379;BME280;32084;42.254;22.744;2023-11-21T06:59:50;95032.00;;;5.74;81.57
46379;BME280;32084;42.254;22.744;2023-11-21T07:02:16;95039.44;;;5.80;81.20
46379;BME280;32084;42.254;22.744;2023-11-21T07:04:44;95034.09;;;5.70;81.95
46379;BME280;32084;42.254;22.744;2023-11-21T07:07:11;95042.75;;;5.72;82.70
46379;BME280;32084;42.254;22.744;2023-11-21T07:09:37;95047.78;;;5.65;82.52
46379;BME280;32084;42.254;22.744;2023-11-21T07:12:04;95050.31;;;5.46;84.32
46379;BME280;32084;42.254;22.744;2023-11-21T07:14:36;95057.84;;;5.41;85.39
46379;BME280;32084;42.254;22.744;2023-11-21T07:17:02;95056.41;;;5.37;85.36
46379;BME280;32084;42.254;22.744;2023-11-21T07:19:28;95054.09;;;5.22;87.49
46379;BME280;32084;42.254;22.744;2023-11-21T07:21:56;95053.78;;;5.16;88.30
46379;BME280;32084;42.254;22.744;2023-11-21T07:24:22;95048.75;;;5.13;88.33
46379;BME280;32084;42.254;22.744;2023-11-21T07:26:51;95053.53;;;5.19;88.31
46379;BME280;32084;42.254;22.744;2023-11-21T07:29:20;95042.41;;;5.25;88.93
46379;BME280;32084;42.254;22.744;2023-11-21T07:31:46;95043.59;;;5.42;88.13
46379;BME280;32084;42.254;22.744;2023-11-21T07:34:12;95049.47;;;5.45;88.20
46379;BME280;32084;42.254;22.744;2023-11-21T07:36:38;95053.25;;;5.43;88.53
46379;BME280;32084;42.254;22.744;2023-11-21T07:39:04;95056.78;;;5.53;88.67
46379;BME280;32084;42.254;22.744;2023-11-21T07:41:32;95055.97;;;5.62;88.03
46379;BME280;32084;42.254;22.744;2023-11-21T07:43:58;95049.03;;;5.71;86.11
46379;BME280;32084;42.254;22.744;2023-11-21T07:46:24;95052.53;;;6.02;86.40
46379;BME280;32084;42.254;22.744;2023-11-21T07:48:52;95051.47;;;6.24;84.86
46379;BME280;32084;42.254;22.744;2023-11-21T07:51:19;95046.66;;;6.18;83.79
46379;BME280;32084;42.254;22.744;2023-11-21T07:53:45;95049.31;;;6.09;85.89
46379;BME280;32084;42.254;22.744;2023-11-21T07:56:11;95054.13;;;5.94;85.34
46379;BME280;32084;42.254;22.744;2023-11-21T07:58:37;95049.38;;;5.87;87.46
46379;BME280;32084;42.254;22.744;2023-11-21T08:01:03;95054.50;;;6.10;85.56
46379;BME280;32084;42.254;22.744;2023-11-21T08:03:29;95055.19;;;6.12;84.80
46379;BME280;32084;42.254;22.744;2023-11-21T08:05:56;95051.13;;;6.08;86.93
46379;BME280;32084;42.254;22.744;2023-11-21T08:08:23;95036.59;;;6.12;86.97
46379;BME280;32084;42.254;22.744;2023-11-21T08:10:50;95042.03;;;6.11;87.27
46379;BME280;32084;42.254;22.744;2023-11-21T08:13:25;95047.81;;;6.25;86.14
46379;BME280;32084;42.254;22.744;2023-11-21T08:15:53;95040.03;;;6.43;86.79
46379;BME280;32084;42.254;22.744;2023-11-21T08:18:19;95037.78;;;6.49;87.24
46379;BME280;32084;42.254;22.744;2023-11-21T08:20:47;95032.19;;;6.71;86.35
46379;BME280;32084;42.254;22.744;2023-11-21T08:23:16;95033.84;;;6.92;86.33
46379;BME280;32084;42.254;22.744;2023-11-21T08:25:45;95022.13;;;6.65;87.05
46379;BME280;32084;42.254;22.744;2023-11-21T08:28:12;95005.50;;;6.63;87.68
46379;BME280;32084;42.254;22.744;2023-11-21T08:30:38;95000.59;;;6.78;87.96
46379;BME280;32084;42.254;22.744;2023-11-21T08:33:04;94992.03;;;6.84;88.35
46379;BME280;32084;42.254;22.744;2023-11-21T08:35:30;94992.13;;;7.21;87.08
46379;BME280;32084;42.254;22.744;2023-11-21T08:37:56;94972.06;;;7.65;85.48
46379;BME280;32084;42.254;22.744;2023-11-21T08:40:22;94971.97;;;7.84;84.45
46379;BME280;32084;42.254;22.744;2023-11-21T08:42:49;94970.97;;;7.57;83.52
46379;BME280;32084;42.254;22.744;2023-11-21T08:45:17;94973.25;;;7.52;84.21
46379;BME280;32084;42.254;22.744;2023-11-21T08:47:43;94965.66;;;7.57;84.12
46379;BME280;32084;42.254;22.744;2023-11-21T08:51:19;94964.13;;;8.00;81.53
46379;BME280;32084;42.254;22.744;2023-11-21T08:53:45;94967.84;;;8.35;80.20
46379;BME280;32084;42.254;22.744;2023-11-21T08:56:14;94957.28;;;8.44;79.18
46379;BME280;32084;42.254;22.744;2023-11-21T08:58:41;94961.41;;;8.56;79.34
46379;BME280;32084;42.254;22.744;2023-11-21T09:01:07;94945.75;;;8.79;78.23
46379;BME280;32084;42.254;22.744;2023-11-21T09:03:33;94938.38;;;8.99;77.44
46379;BME280;32084;42.254;22.744;2023-11-21T09:06:00;94931.13;;;8.83;77.59
46379;BME280;32084;42.254;22.744;2023-11-21T09:08:26;94920.19;;;8.68;77.75
46379;BME280;32084;42.254;22.744;2023-11-21T09:10:55;94919.97;;;8.62;78.12
46379;BME280;32084;42.254;22.744;2023-11-21T09:13:21;94913.69;;;8.45;79.61
46379;BME280;32084;42.254;22.744;2023-11-21T09:15:47;94904.81;;;8.44;78.63
46379;BME280;32084;42.254;22.744;2023-11-21T09:18:15;94906.75;;;8.52;77.30
46379;BME280;32084;42.254;22.744;2023-11-21T09:20:41;94911.38;;;8.50;76.76
46379;BME280;32084;42.254;22.744;2023-11-21T09:23:09;94917.75;;;8.39;78.51
46379;BME280;32084;42.254;22.744;2023-11-21T09:25:35;94922.31;;;8.29;79.32
46379;BME280;32084;42.254;22.744;2023-11-21T09:28:03;94915.25;;;8.37;78.95
46379;BME280;32084;42.254;22.744;2023-11-21T09:30:34;94902.31;;;8.25;78.16
46379;BME280;32084;42.254;22.744;2023-11-21T09:33:01;94898.97;;;8.05;80.81
46379;BME280;32084;42.254;22.744;2023-11-21T09:35:27;94906.09;;;7.86;80.94
46379;BME280;32084;42.254;22.744;2023-11-21T09:37:53;94902.28;;;7.71;81.77
46379;BME280;32084;42.254;22.744;2023-11-21T09:40:21;94888.97;;;7.71;82.53
46379;BME280;32084;42.254;22.744;2023-11-21T09:42:54;94891.50;;;7.72;81.38
46379;BME280;32084;42.254;22.744;2023-11-21T09:45:24;94890.75;;;7.80;80.98
46379;BME280;32084;42.254;22.744;2023-11-21T09:47:57;94894.31;;;7.71;80.16
46379;BME280;32084;42.254;22.744;2023-11-21T09:50:24;94881.41;;;7.76;80.36
46379;BME280;32084;42.254;22.744;2023-11-21T09:55:18;94873.47;;;8.02;79.82
46379;BME280;32084;42.254;22.744;2023-11-21T09:57:47;94861.75;;;8.13;78.00
46379;BME280;32084;42.254;22.744;2023-11-21T10:00:14;94866.13;;;8.14;78.30
46379;BME280;32084;42.254;22.744;2023-11-21T10:02:43;94866.56;;;8.09;77.91
46379;BME280;32084;42.254;22.744;2023-11-21T10:05:09;94870.00;;;7.84;77.84
46379;BME280;32084;42.254;22.744;2023-11-21T10:07:37;94876.91;;;7.76;79.47
46379;BME280;32084;42.254;22.744;2023-11-21T10:10:05;94870.97;;;7.82;79.13
46379;BME280;32084;42.254;22.744;2023-11-21T10:12:31;94856.81;;;8.00;80.41
46379;BME280;32084;42.254;22.744;2023-11-21T10:14:58;94857.88;;;8.07;81.97
46379;BME280;32084;42.254;22.744;2023-11-21T10:17:26;94845.19;;;8.01;81.02
46379;BME280;32084;42.254;22.744;2023-11-21T10:19:56;94846.41;;;8.07;81.13
46379;BME280;32084;42.254;22.744;2023-11-21T10:22:23;94838.41;;;8.07;81.58
46379;BME280;32084;42.254;22.744;2023-11-21T10:24:50;94844.28;;;8.10;81.37
46379;BME280;32084;42.254;22.744;2023-11-21T10:27:16;94846.31;;;8.16;81.69
46379;BME280;32084;42.254;22.744;2023-11-21T10:29:42;94839.00;;;8.18;81.29
46379;BME280;32084;42.254;22.744;2023-11-21T10:32:08;94835.91;;;8.05;81.25
46379;BME280;32084;42.254;22.744;2023-11-21T10:34:34;94837.88;;;8.03;82.00
46379;BME280;32084;42.254;22.744;2023-11-21T10:37:10;94840.00;;;7.99;81.15
46379;BME280;32084;42.254;22.744;2023-11-21T10:39:37;94818.56;;;7.83;83.04
46379;BME280;32084;42.254;22.744;2023-11-21T10:42:04;94812.47;;;7.91;82.31
46379;BME280;32084;42.254;22.744;2023-11-21T10:44:33;94803.38;;;7.93;83.48
46379;BME280;32084;42.254;22.744;2023-11-21T10:46:59;94797.41;;;7.99;82.46
46379;BME280;32084;42.254;22.744;2023-11-21T10:49:26;94786.25;;;7.96;83.02
46379;BME280;32084;42.254;22.744;2023-11-21T10:51:55;94774.38;;;8.08;82.68
46379;BME280;32084;42.254;22.744;2023-11-21T10:54:22;94771.94;;;8.23;82.90
46379;BME280;32084;42.254;22.744;2023-11-21T10:56:49;94787.44;;;8.46;83.37
46379;BME280;32084;42.254;22.744;2023-11-21T10:59:19;94790.88;;;8.56;84.15
46379;BME280;32084;42.254;22.744;2023-11-21T11:01:46;94783.56;;;8.66;83.74
46379;BME280;32084;42.254;22.744;2023-11-21T11:04:15;94781.13;;;8.73;84.13
46379;BME280;32084;42.254;22.744;2023-11-21T11:06:43;94766.91;;;8.64;83.40
46379;BME280;32084;42.254;22.744;2023-11-21T11:09:13;94778.91;;;8.68;83.71
46379;BME280;32084;42.254;22.744;2023-11-21T11:11:40;94789.31;;;8.79;83.55
46379;BME280;32084;42.254;22.744;2023-11-21T11:14:09;94788.94;;;8.74;83.36
46379;BME280;32084;42.254;22.744;2023-11-21T11:16:36;94765.66;;;8.76;82.44
46379;BME280;32084;42.254;22.744;2023-11-21T11:19:09;94754.53;;;8.89;82.99
46379;BME280;32084;42.254;22.744;2023-11-21T11:26:58;94762.25;;;9.01;81.79
46379;BME280;32084;42.254;22.744;2023-11-21T11:32:03;94746.59;;;9.06;81.89
46379;BME280;32084;42.254;22.744;2023-11-21T11:34:33;94731.72;;;8.95;81.59
46379;BME280;32084;42.254;22.744;2023-11-21T11:37:03;94745.41;;;9.00;81.13
46379;BME280;32084;42.254;22.744;2023-11-21T11:39:30;94745.78;;;9.13;81.44
46379;BME280;32084;42.254;22.744;2023-11-21T11:41:57;94733.63;;;9.11;81.94
46379;BME280;32084;42.254;22.744;2023-11-21T11:49:56;94728.09;;;9.12;79.92
46379;BME280;32084;42.254;22.744;2023-11-21T11:52:36;94732.81;;;9.18;80.70
46379;BME280;32084;42.254;22.744;2023-11-21T11:55:02;94726.13;;;9.14;81.32
46379;BME280;32084;42.254;22.744;2023-11-21T11:57:30;94715.13;;;9.26;80.41
46379;BME280;32084;42.254;22.744;2023-11-21T12:02:35;94699.94;;;9.18;80.95
46379;BME280;32084;42.254;22.744;2023-11-21T12:05:09;94696.13;;;9.29;80.15
46379;BME280;32084;42.254;22.744;2023-11-21T12:07:55;94700.31;;;9.31;80.56
46379;BME280;32084;42.254;22.744;2023-11-21T12:10:24;94700.69;;;9.45;81.00
46379;BME280;32084;42.254;22.744;2023-11-21T12:12:51;94697.34;;;9.51;80.23
46379;BME280;32084;42.254;22.744;2023-11-21T12:15:20;94694.34;;;9.54;80.63
46379;BME280;32084;42.254;22.744;2023-11-21T12:17:47;94694.34;;;9.54;80.10
46379;BME280;32084;42.254;22.744;2023-11-21T12:20:15;94690.16;;;9.51;80.99
46379;BME280;32084;42.254;22.744;2023-11-21T12:22:43;94697.34;;;9.59;80.93
46379;BME280;32084;42.254;22.744;2023-11-21T12:25:09;94690.00;;;9.61;79.17
46379;BME280;32084;42.254;22.744;2023-11-21T12:27:35;94686.66;;;9.59;80.51
46379;BME280;32084;42.254;22.744;2023-11-21T12:30:01;94676.47;;;9.46;80.18
46379;BME280;32084;42.254;22.744;2023-11-21T12:32:27;94676.16;;;9.57;79.92
46379;BME280;32084;42.254;22.744;2023-11-21T12:34:53;94683.66;;;9.54;79.98
46379;BME280;32084;42.254;22.744;2023-11-21T12:37:20;94686.34;;;9.62;79.73
46379;BME280;32084;42.254;22.744;2023-11-21T12:39:46;94676.19;;;9.66;79.48
46379;BME280;32084;42.254;22.744;2023-11-21T12:42:12;94663.50;;;9.68;79.21
46379;BME280;32084;42.254;22.744;2023-11-21T12:44:38;94666.66;;;9.71;79.78
46379;BME280;32084;42.254;22.744;2023-11-21T12:47:06;94656.13;;;9.78;79.31
46379;BME280;32084;42.254;22.744;2023-11-21T12:49:34;94662.00;;;9.73;78.87
46379;BME280;32084;42.254;22.744;2023-11-21T12:52:00;94648.81;;;9.72;77.43
46379;BME280;32084;42.254;22.744;2023-11-21T12:54:26;94638.63;;;9.75;78.18
46379;BME280;32084;42.254;22.744;2023-11-21T12:56:53;94648.94;;;9.78;77.99
46379;BME280;32084;42.254;22.744;2023-11-21T12:59:20;94644.78;;;9.76;77.16
46379;BME280;32084;42.254;22.744;2023-11-21T13:01:46;94644.78;;;9.76;78.49
46379;BME280;32084;42.254;22.744;2023-11-21T13:04:12;94636.63;;;9.77;77.38
46379;BME280;32084;42.254;22.744;2023-11-21T13:06:38;94634.28;;;9.83;77.69
46379;BME280;32084;42.254;22.744;2023-11-21T13:09:07;94625.25;;;9.84;76.89
46379;BME280;32084;42.254;22.744;2023-11-21T13:11:36;94618.72;;;9.86;76.66
46379;BME280;32084;42.254;22.744;2023-11-21T13:14:03;94628.56;;;9.94;77.04
46379;BME280;32084;42.254;22.744;2023-11-21T13:16:29;94636.09;;;9.99;77.37
46379;BME280;32084;42.254;22.744;2023-11-21T13:18:56;94634.41;;;10.06;77.19